Freehold, NY (12431)

10:06 AM EDT on August 21, 2014 (GMT -0400)
KNYFREEH2 | Change Station
CLOSE
Current Station
Personal Weather Station
Location: Freehold, NY
Elevation: 587 ft
Nearby Weather Stations

Elev 587 ft 42.36 °N, 74.04 °W | Updated 1 minute ago

Overcast
Overcast
65.3 °F
Feels Like 65.3 °F
N
0.0
Wind Variable Wind from East
Gusts 0.0 mph

Today
High -- | Low -- °F
--% Chance of Precip.
Yesterday
High -- | Low -- °F
Precip. -- in
6:09 AM 7:48 PM
Waning Crescent, 14% visible
Pressure 30.04 in
Visibility 10.0 miles
Clouds Scattered Clouds 900 ft
Mostly Cloudy 3200 ft
Overcast 6000 ft
Dew Point 65 °F
Humidity 98%
Rainfall 0.16 in
Snow Depth Not available.
UV 2 out of 12
Pollen 5.80 out of 12
PM2.5 Good
Flu Activity Not available.
METAR KALB 211351Z 17009KT 10SM SCT009 BKN032 OVC060 21/17 A3004 RMK AO2 SLP171 T02060172 $

More Conditions Fewer Conditions

Pressure 30.04 in
Visibility 10.0 miles
Clouds Scattered Clouds 900 ft
Mostly Cloudy 3200 ft
Overcast 6000 ft
Dew Point 65 °F
Humidity 98%
Rainfall 0.16 in
Snow Depth Not available.
UV 2 out of 12
Pollen 5.80 out of 12
PM2.5 Good
Flu Activity Not available.
METAR KALB 211351Z 17009KT 10SM SCT009 BKN032 OVC060 21/17 A3004 RMK AO2 SLP171 T02060172 $

More Conditions Fewer Conditions

10-Day Weather Forecast

Almanac

Astronomy

Aug. 21, 2014 Rise Set
Actual Time 6:09 AM EDT 7:48 PM EDT
Civil Twilight 5:39 AM EDT 8:17 PM EDT
Nautical Twilight 5:03 AM EDT 8:53 PM EDT
Astronomical Twilight 4:25 AM EDT 9:32 PM EDT
Moon 2:35 AM EDT 5:16 PM EDT
Length of Visible Light 14h 37m
Length of Day
13h 38m
Tomorrow will be 2m 38s shorter.
Waning Crescent, 14% of the Moon is Illuminated
Today
Waning Crescent
Aug 25
New
Sep 2
First Quarter
Sep 8
Full
Sep 15
Last Quarter

Today's Extremes

State Highs State Lows

Community

WunderPhotos

Upload Photos

1,745,925 photos uploaded!

WunderBlogs® & News

Nearby

Air Quality

  Air Quality AQ Index Pollutant
Yesterday Moderate
OZONE
Yesterday Good
PM2.5
Current Good
PM2.5
Thursday Good
PM2.5
Thursday Good
OZONE

Snow Depth

Station Depth Elevation
No new snow has been reported.

Earthquake Activity

City Distance Mag. Time & Date
No recent earthquake activity has been reported nearby.
Minimum magnitude displayed is 2.5.

Coastal Water Temperatures

Place Temperature
No Stations Reporting

Nearby Weather Stations